createdAt,value
2023-05-13T00:01:10.784Z,101426.28
2023-05-13T00:03:37.901Z,101430.63
2023-05-13T00:06:04.465Z,101422.75
2023-05-13T00:08:30.804Z,101420.88
2023-05-13T00:10:57.049Z,101423.81
2023-05-13T00:13:23.270Z,101428.16
2023-05-13T00:15:49.631Z,101426.28
2023-05-13T00:18:15.942Z,101424.63
2023-05-13T00:20:42.942Z,101425.44
2023-05-13T00:23:09.842Z,101422.75
2023-05-13T00:25:37.804Z,101418.41
2023-05-13T00:28:04.050Z,101428.16
2023-05-13T00:30:30.298Z,101426.50
2023-05-13T00:32:57.495Z,101425.44
2023-05-13T00:35:23.811Z,101433.56
2023-05-13T00:37:50.104Z,101428.97
2023-05-13T00:40:17.802Z,101428.16
2023-05-13T00:42:44.070Z,101422.97
2023-05-13T00:45:10.908Z,101421.09
2023-05-13T00:47:39.097Z,101431.06
2023-05-13T00:50:05.365Z,101435.41
2023-05-13T00:52:31.803Z,101438.94
2023-05-13T00:55:00.119Z,101435.41
2023-05-13T00:57:26.576Z,101441.66
2023-05-13T00:59:52.807Z,101440.00
2023-05-13T01:02:19.099Z,101440.00
2023-05-13T01:04:46.816Z,101441.66
2023-05-13T01:07:13.074Z,101449.75
2023-05-13T01:09:39.387Z,101440.81
2023-05-13T01:12:05.900Z,101447.06
2023-05-13T01:14:32.169Z,101450.81
2023-05-13T01:16:58.943Z,101456.22
2023-05-13T01:19:25.446Z,101450.81
2023-05-13T01:21:51.862Z,101448.13
2023-05-13T01:24:18.129Z,101449.97
2023-05-13T01:26:44.440Z,101457.84
2023-05-13T01:29:10.676Z,101456.22
2023-05-13T01:31:36.936Z,101453.50
2023-05-13T01:34:03.251Z,101458.91
2023-05-13T01:36:29.489Z,101464.31
2023-05-13T01:38:55.800Z,101467.81
2023-05-13T01:41:22.038Z,101458.91
2023-05-13T01:43:48.392Z,101461.63
2023-05-13T01:46:14.708Z,101468.03
2023-05-13T01:48:40.941Z,101472.41
2023-05-13T01:51:07.393Z,101486.13
2023-05-13T01:53:33.673Z,101481.53
2023-05-13T01:56:00.019Z,101485.31
2023-05-13T01:58:26.965Z,101478.84
2023-05-13T02:00:53.229Z,101482.38
2023-05-13T02:03:20.990Z,101491.53
2023-05-13T02:05:47.313Z,101489.66
2023-05-13T02:08:13.522Z,101486.13
2023-05-13T02:10:39.785Z,101486.94
2023-05-13T02:13:06.053Z,101479.91
2023-05-13T02:15:32.521Z,101486.94
2023-05-13T02:17:58.854Z,101484.50
2023-05-13T02:20:25.580Z,101489.66
2023-05-13T02:22:52.173Z,101478.84
2023-05-13T02:25:18.517Z,101482.59
2023-05-13T02:27:44.876Z,101468.28
2023-05-13T02:30:11.118Z,101478.84
2023-05-13T02:32:37.396Z,101485.31
2023-05-13T02:35:03.704Z,101483.66
2023-05-13T02:37:30.024Z,101488.00
2023-05-13T02:39:56.303Z,101483.44
2023-05-13T02:42:22.551Z,101485.09
2023-05-13T02:44:48.846Z,101491.53
2023-05-13T02:47:15.745Z,101487.19
2023-05-13T02:49:42.012Z,101490.72
2023-05-13T02:52:08.315Z,101487.78
2023-05-13T02:54:34.547Z,101485.31
2023-05-13T02:57:00.792Z,101489.91
2023-05-13T02:59:29.063Z,101488.00
2023-05-13T03:01:55.312Z,101486.94
2023-05-13T03:04:21.552Z,101493.63
2023-05-13T03:06:52.697Z,101496.09
2023-05-13T03:09:18.996Z,101494.47
2023-05-13T03:11:50.928Z,101500.94
2023-05-13T03:14:23.289Z,101501.72
2023-05-13T03:16:49.520Z,101502.78
2023-05-13T03:19:15.849Z,101504.44
2023-05-13T03:21:42.173Z,101503.63
2023-05-13T03:24:08.448Z,101507.13
2023-05-13T03:26:34.705Z,101510.88
2023-05-13T03:29:02.277Z,101519.00
2023-05-13T03:31:28.765Z,101509.84
2023-05-13T03:33:55.049Z,101518.19
2023-05-13T03:36:22.249Z,101513.59
2023-05-13T03:38:48.640Z,101517.13
2023-05-13T03:41:14.935Z,101512.53
2023-05-13T03:43:41.184Z,101527.72
2023-05-13T03:46:07.823Z,101518.19
2023-05-13T03:48:34.220Z,101519.81
2023-05-13T03:51:00.459Z,101527.94
2023-05-13T03:53:26.756Z,101527.09
2023-05-13T03:55:53.600Z,101538.72
2023-05-13T03:58:20.118Z,101528.16
2023-05-13T04:00:46.449Z,101530.63
2023-05-13T04:03:12.800Z,101534.38
2023-05-13T04:05:39.387Z,101535.41
2023-05-13T04:08:05.675Z,101534.59
2023-05-13T04:10:31.944Z,101533.56
2023-05-13T04:13:02.697Z,101537.31
2023-05-13T04:15:28.968Z,101536.47
2023-05-13T04:17:55.233Z,101541.88
2023-05-13T04:20:21.724Z,101531.50
2023-05-13T04:22:48.123Z,101544.78
2023-05-13T04:25:14.373Z,101546.69
2023-05-13T04:27:41.770Z,101541.03
2023-05-13T04:30:08.068Z,101542.09
2023-05-13T04:32:34.362Z,101538.59
2023-05-13T04:35:01.335Z,101539.41
2023-05-13T04:37:28.948Z,101547.72
2023-05-13T04:39:55.406Z,101547.50
2023-05-13T04:42:21.661Z,101543.16
2023-05-13T04:44:47.913Z,101547.72
2023-05-13T04:47:14.183Z,101550.41
2023-05-13T04:49:40.424Z,101547.72
2023-05-13T04:52:07.038Z,101550.41
2023-05-13T04:54:33.539Z,101554.78
2023-05-13T04:56:59.792Z,101553.97
2023-05-13T04:59:26.059Z,101553.13
2023-05-13T05:01:52.369Z,101548.56
2023-05-13T05:04:18.757Z,101556.44
2023-05-13T05:06:45.187Z,101558.53
2023-05-13T05:09:13.460Z,101557.50
2023-05-13T05:11:39.688Z,101559.34
2023-05-13T05:14:05.917Z,101556.06
2023-05-13T05:16:32.265Z,101555.00
2023-05-13T05:18:58.577Z,101557.72
2023-05-13T05:21:26.360Z,101559.56
2023-05-13T05:23:52.601Z,101563.13
2023-05-13T05:26:18.906Z,101565.81
2023-05-13T05:28:45.195Z,101555.00
2023-05-13T05:31:11.509Z,101556.66
2023-05-13T05:33:37.787Z,101563.91
2023-05-13T05:36:04.041Z,101563.13
2023-05-13T05:38:30.292Z,101569.31
2023-05-13T05:40:56.635Z,101553.13
2023-05-13T05:43:22.894Z,101555.00
2023-05-13T05:45:49.906Z,101564.75
2023-05-13T05:48:16.149Z,101563.91
2023-05-13T05:50:42.600Z,101563.91
2023-05-13T05:53:09.898Z,101561.47
2023-05-13T05:55:36.157Z,101551.25
2023-05-13T05:58:02.402Z,101552.09
2023-05-13T06:00:28.710Z,101559.34
2023-05-13T06:02:55.451Z,101550.41
2023-05-13T06:05:21.777Z,101560.19
2023-05-13T06:07:48.683Z,101571.00
2023-05-13T06:10:15.024Z,101562.06
2023-05-13T06:12:41.277Z,101558.28
2023-05-13T06:15:07.517Z,101548.56
2023-05-13T06:17:33.874Z,101560.19
2023-05-13T06:20:01.447Z,101556.44
2023-05-13T06:22:27.750Z,101553.97
2023-05-13T06:24:56.634Z,101550.19
2023-05-13T06:27:22.930Z,101556.44
2023-05-13T06:29:49.175Z,101551.25
2023-05-13T06:32:15.411Z,101555.59
2023-05-13T06:34:44.612Z,101559.34
2023-05-13T06:37:10.893Z,101562.91
2023-05-13T06:39:37.947Z,101565.59
2023-05-13T06:42:04.187Z,101558.28
2023-05-13T06:44:30.446Z,101565.59
2023-05-13T06:46:56.716Z,101567.22
2023-05-13T06:49:22.999Z,101569.94
2023-05-13T06:51:49.265Z,101564.53
2023-05-13T06:54:15.520Z,101573.44
2023-05-13T06:56:41.801Z,101572.63
2023-05-13T06:59:08.076Z,101565.34
2023-05-13T07:01:34.321Z,101567.22
2023-05-13T07:04:00.746Z,101573.44
2023-05-13T07:06:27.053Z,101571.56
2023-05-13T07:08:53.292Z,101570.75
2023-05-13T07:11:19.517Z,101575.13
2023-05-13T07:13:45.787Z,101567.00
2023-05-13T07:16:13.125Z,101573.22
2023-05-13T07:18:39.445Z,101570.50
2023-05-13T07:21:05.914Z,101573.22
2023-05-13T07:23:32.328Z,101565.94
2023-05-13T07:25:58.581Z,101558.69
2023-05-13T07:28:24.824Z,101561.38
2023-05-13T07:30:52.724Z,101564.31
2023-05-13T07:33:19.016Z,101562.63
2023-05-13T07:35:46.476Z,101562.41
2023-05-13T07:38:12.764Z,101560.56
2023-05-13T07:40:39.533Z,101565.13
2023-05-13T07:43:05.767Z,101556.22
2023-05-13T07:45:32.021Z,101557.84
2023-05-13T07:47:58.331Z,101551.63
2023-05-13T07:50:24.950Z,101555.16
2023-05-13T07:52:51.207Z,101557.84
2023-05-13T07:55:17.511Z,101554.31
2023-05-13T07:57:44.262Z,101556.00
2023-05-13T08:00:10.495Z,101556.00
2023-05-13T08:02:37.721Z,101546.00
2023-05-13T08:05:04.182Z,101553.28
2023-05-13T08:07:30.527Z,101554.22
2023-05-13T08:09:56.808Z,101546.84
2023-05-13T08:12:23.067Z,101550.34
2023-05-13T08:14:49.331Z,101553.28
2023-05-13T08:17:15.632Z,101550.34
2023-05-13T08:19:41.886Z,101553.88
2023-05-13T08:22:08.118Z,101544.94
2023-05-13T08:24:35.227Z,101548.47
2023-05-13T08:27:01.490Z,101553.88
2023-05-13T08:29:28.251Z,101543.06
2023-05-13T08:31:54.594Z,101560.91
2023-05-13T08:34:21.028Z,101559.28
2023-05-13T08:36:47.277Z,101544.94
2023-05-13T08:39:13.782Z,101538.50
2023-05-13T08:41:40.109Z,101553.88
2023-05-13T08:44:06.370Z,101548.25
2023-05-13T08:46:32.665Z,101555.50
2023-05-13T08:49:00.023Z,101544.72
2023-05-13T08:51:26.282Z,101533.91
2023-05-13T08:53:52.533Z,101541.56
2023-05-13T08:56:18.781Z,101540.16
2023-05-13T08:58:45.040Z,101533.69
2023-05-13T09:01:11.332Z,101524.75
2023-05-13T09:03:37.641Z,101532.06
2023-05-13T09:06:03.909Z,101536.38
2023-05-13T09:08:30.155Z,101543.66
2023-05-13T09:10:56.482Z,101530.75
2023-05-13T09:13:22.791Z,101538.88
2023-05-13T09:15:49.077Z,101533.47
2023-05-13T09:18:18.022Z,101532.63
2023-05-13T09:20:45.602Z,101528.06
2023-05-13T09:23:11.882Z,101539.69
2023-05-13T09:25:38.232Z,101531.81
2023-05-13T09:28:04.513Z,101529.94
2023-05-13T09:30:30.744Z,101526.44
2023-05-13T09:32:57.059Z,101528.91
2023-05-13T09:35:23.448Z,101529.94
2023-05-13T09:37:49.721Z,101524.31
2023-05-13T09:40:16.512Z,101522.66
2023-05-13T09:42:42.859Z,101505.41
2023-05-13T09:45:09.255Z,101523.50
2023-05-13T09:47:35.796Z,101527.22
2023-05-13T09:50:02.159Z,101523.25
2023-05-13T09:55:37.690Z,101522.66
2023-05-13T09:58:03.968Z,101511.03
2023-05-13T10:00:33.158Z,101517.25
2023-05-13T10:03:00.293Z,101501.06
2023-05-13T10:05:26.622Z,101503.22
2023-05-13T10:07:52.880Z,101503.44
2023-05-13T10:10:21.674Z,101501.81
2023-05-13T10:12:48.001Z,101511.09
2023-05-13T10:15:14.277Z,101505.94
2023-05-13T10:17:40.537Z,101503.00
2023-05-13T10:20:07.353Z,101510.03
2023-05-13T10:22:33.663Z,101504.88
2023-05-13T10:24:59.908Z,101500.63
2023-05-13T10:27:26.908Z,101505.28
2023-05-13T10:29:53.183Z,101500.44
2023-05-13T10:32:20.456Z,101494.16
2023-05-13T10:34:46.876Z,101500.13
2023-05-13T10:37:13.181Z,101492.28
2023-05-13T10:39:39.463Z,101490.38
2023-05-13T10:42:05.729Z,101484.75
2023-05-13T10:44:32.141Z,101481.84
2023-05-13T10:46:58.402Z,101482.66
2023-05-13T10:49:24.653Z,101487.25
2023-05-13T10:51:50.949Z,101482.41
2023-05-13T10:54:17.186Z,101479.72
2023-05-13T10:56:43.754Z,101478.69
2023-05-13T10:59:10.163Z,101490.31
2023-05-13T11:01:36.459Z,101484.91
2023-05-13T11:04:03.462Z,101476.56
2023-05-13T11:06:29.844Z,101477.41
2023-05-13T11:08:56.445Z,101477.19
2023-05-13T11:11:22.890Z,101476.34
2023-05-13T11:13:49.125Z,101481.53
2023-05-13T11:16:15.481Z,101479.41
2023-05-13T11:18:41.768Z,101469.66
2023-05-13T11:21:09.404Z,101469.44
2023-05-13T11:23:35.758Z,101467.91
2023-05-13T11:26:02.065Z,101473.09
2023-05-13T11:28:28.326Z,101464.16
2023-05-13T11:30:54.583Z,101472.84
2023-05-13T11:33:20.855Z,101470.75
2023-05-13T11:35:47.274Z,101461.38
2023-05-13T11:38:13.686Z,101465.72
2023-05-13T11:40:43.489Z,101467.41
2023-05-13T11:43:09.805Z,101466.56
2023-05-13T11:45:36.148Z,101474.44
2023-05-13T11:48:03.707Z,101462.00
2023-05-13T11:50:30.841Z,101473.97
2023-05-13T11:52:57.403Z,101469.69
2023-05-13T11:55:23.779Z,101468.28
2023-05-13T11:57:50.186Z,101467.91
2023-05-13T12:00:16.723Z,101464.97
2023-05-13T12:02:43.058Z,101453.94
2023-05-13T12:05:09.498Z,101461.19
2023-05-13T12:07:36.088Z,101458.28
2023-05-13T12:10:02.349Z,101469.91
2023-05-13T12:12:28.617Z,101465.47
2023-05-13T12:14:54.957Z,101463.56
2023-05-13T12:17:21.259Z,101469.81
2023-05-13T12:19:47.528Z,101459.81
2023-05-13T12:22:13.946Z,101461.25
2023-05-13T12:24:40.179Z,101463.09
2023-05-13T12:27:07.214Z,101463.94
2023-05-13T12:29:34.468Z,101462.66
2023-05-13T12:32:00.921Z,101457.81
2023-05-13T12:34:27.156Z,101465.34
2023-05-13T12:36:53.487Z,101456.75
2023-05-13T12:39:20.353Z,101455.94
2023-05-13T12:41:48.011Z,101464.53
2023-05-13T12:44:14.284Z,101461.34
2023-05-13T12:46:42.809Z,101463.84
2023-05-13T12:49:10.191Z,101457.81
2023-05-13T12:51:38.374Z,101445.47
2023-05-13T12:54:04.684Z,101452.75
2023-05-13T12:56:30.937Z,101453.38
2023-05-13T12:58:57.234Z,101440.41
2023-05-13T13:01:23.528Z,101435.63
2023-05-13T13:03:51.291Z,101451.13
2023-05-13T13:06:17.658Z,101440.91
2023-05-13T13:08:45.073Z,101449.84
2023-05-13T13:11:11.432Z,101455.25
2023-05-13T13:13:39.385Z,101455.00
2023-05-13T13:16:07.213Z,101453.13
2023-05-13T13:18:33.621Z,101455.84
2023-05-13T13:20:59.925Z,101451.25
2023-05-13T13:23:26.166Z,101452.06
2023-05-13T13:25:54.569Z,101449.38
2023-05-13T13:28:20.899Z,101445.84
2023-05-13T13:30:47.367Z,101442.88
2023-05-13T13:33:13.761Z,101445.13
2023-05-13T13:35:40.033Z,101445.47
2023-05-13T13:38:06.290Z,101444.78
2023-05-13T13:40:32.555Z,101445.38
2023-05-13T13:42:59.364Z,101454.06
2023-05-13T13:45:25.671Z,101451.38
2023-05-13T13:47:53.505Z,101445.13
2023-05-13T13:50:19.988Z,101441.59
2023-05-13T13:52:46.559Z,101445.63
2023-05-13T13:55:14.871Z,101457.47
2023-05-13T13:57:41.131Z,101459.38
2023-05-13T14:00:07.503Z,101465.00
2023-05-13T14:02:34.027Z,101461.47
2023-05-13T14:05:01.185Z,101469.34
2023-05-13T14:07:27.569Z,101467.25
2023-05-13T14:09:55.038Z,101488.06
2023-05-13T14:12:21.280Z,101488.53
2023-05-13T14:14:47.540Z,101486.66
2023-05-13T14:17:14.510Z,101499.94
2023-05-13T14:19:40.983Z,101510.53
2023-05-13T14:22:07.873Z,101529.47
2023-05-13T14:27:18.366Z,101527.78
2023-05-13T14:29:44.626Z,101540.53
2023-05-13T14:32:12.231Z,101539.44
2023-05-13T14:37:22.101Z,101501.59
2023-05-13T14:39:50.119Z,101526.03
2023-05-13T14:45:07.880Z,101484.34
2023-05-13T14:47:34.206Z,101488.19
2023-05-13T14:50:00.500Z,101490.66
2023-05-13T14:52:26.790Z,101492.81
2023-05-13T14:54:55.268Z,101476.09
2023-05-13T14:57:21.562Z,101482.31
2023-05-13T14:59:47.988Z,101490.44
2023-05-13T15:02:14.350Z,101492.91
2023-05-13T15:04:40.659Z,101499.97
2023-05-13T15:07:11.543Z,101497.50
2023-05-13T15:09:37.841Z,101502.44
2023-05-13T15:12:04.107Z,101502.66
2023-05-13T15:14:31.118Z,101512.69
2023-05-13T15:16:57.478Z,101513.03
2023-05-13T15:19:24.120Z,101508.69
2023-05-13T15:21:50.373Z,101519.50
2023-05-13T15:24:16.803Z,101534.06
2023-05-13T15:26:43.030Z,101544.09
2023-05-13T15:29:09.298Z,101548.66
2023-05-13T15:31:35.650Z,101551.59
2023-05-13T15:34:03.817Z,101564.09
2023-05-13T15:36:30.884Z,101567.59
2023-05-13T15:38:57.239Z,101561.97
2023-05-13T15:41:23.594Z,101553.75
2023-05-13T15:43:49.846Z,101546.44
2023-05-13T15:46:16.172Z,101539.97
2023-05-13T15:48:45.208Z,101536.91
2023-05-13T15:51:11.473Z,101536.31
2023-05-13T15:53:38.332Z,101541.50
2023-05-13T15:56:07.134Z,101545.50
2023-05-13T15:58:33.703Z,101542.56
2023-05-13T16:00:59.956Z,101546.31
2023-05-13T16:03:27.389Z,101549.84
2023-05-13T16:05:53.707Z,101534.69
2023-05-13T16:08:19.959Z,101539.25
2023-05-13T16:10:46.243Z,101543.88
2023-05-13T16:13:12.596Z,101539.50
2023-05-13T16:15:39.188Z,101543.03
2023-05-13T16:18:06.290Z,101534.06
2023-05-13T16:20:32.577Z,101528.66
2023-05-13T16:22:59.986Z,101530.56
2023-05-13T16:25:27.232Z,101524.75
2023-05-13T16:27:53.453Z,101528.28
2023-05-13T16:30:19.752Z,101524.75
2023-05-13T16:32:48.011Z,101534.75
2023-05-13T16:35:16.450Z,101529.34
2023-05-13T16:37:44.799Z,101535.00
2023-05-13T16:40:11.045Z,101527.09
2023-05-13T16:42:37.301Z,101525.25
2023-05-13T16:45:04.091Z,101514.03
2023-05-13T16:47:31.287Z,101512.16
2023-05-13T16:49:58.860Z,101518.41
2023-05-13T16:52:25.102Z,101523.00
2023-05-13T16:54:51.617Z,101516.75
2023-05-13T16:57:19.167Z,101513.00
2023-05-13T16:59:45.410Z,101513.81
2023-05-13T17:02:11.666Z,101509.69
2023-05-13T17:04:37.935Z,101504.75
2023-05-13T17:07:04.191Z,101504.97
2023-05-13T17:09:30.425Z,101502.75
2023-05-13T17:11:56.831Z,101501.34
2023-05-13T17:14:23.085Z,101506.16
2023-05-13T17:16:49.376Z,101503.34
2023-05-13T17:19:15.860Z,101498.16
2023-05-13T17:21:42.234Z,101499.44
2023-05-13T17:24:08.501Z,101499.78
2023-05-13T17:26:36.210Z,101493.56
2023-05-13T17:29:04.617Z,101502.97
2023-05-13T17:31:30.891Z,101505.91
2023-05-13T17:33:57.210Z,101496.22
2023-05-13T17:36:23.474Z,101505.41
2023-05-13T17:38:49.781Z,101494.00
2023-05-13T17:41:16.030Z,101508.56
2023-05-13T17:43:44.382Z,101497.16
2023-05-13T17:46:11.468Z,101504.09
2023-05-13T17:48:37.812Z,101503.25
2023-05-13T17:51:04.220Z,101500.31
2023-05-13T17:53:31.681Z,101506.22
2023-05-13T17:56:00.062Z,101502.69
2023-05-13T17:58:29.117Z,101503.75
2023-05-13T18:00:56.731Z,101508.53
2023-05-13T18:03:22.975Z,101508.75
2023-05-13T18:05:49.276Z,101509.59
2023-05-13T18:08:15.672Z,101509.81
2023-05-13T18:10:42.656Z,101508.19
2023-05-13T18:13:09.012Z,101512.41
2023-05-13T18:15:35.234Z,101511.00
2023-05-13T18:18:01.563Z,101516.16
2023-05-13T18:20:28.001Z,101508.16
2023-05-13T18:22:54.285Z,101506.25
2023-05-13T18:25:20.558Z,101502.56
2023-05-13T18:27:46.857Z,101500.47
2023-05-13T18:30:14.044Z,101497.16
2023-05-13T18:32:40.344Z,101502.16
2023-05-13T18:35:06.641Z,101505.84
2023-05-13T18:37:34.708Z,101508.66
2023-05-13T18:40:01.057Z,101513.63
2023-05-13T18:42:27.294Z,101514.69
2023-05-13T18:44:55.325Z,101513.97
2023-05-13T18:47:21.571Z,101512.84
2023-05-13T18:49:47.840Z,101522.47
2023-05-13T18:52:16.407Z,101526.13
2023-05-13T18:54:42.644Z,101523.91
2023-05-13T18:57:11.458Z,101521.09
2023-05-13T18:59:37.782Z,101517.09
2023-05-13T19:02:04.219Z,101523.44
2023-05-13T19:04:30.692Z,101527.56
2023-05-13T19:06:57.056Z,101520.41
2023-05-13T19:09:23.391Z,101536.22
2023-05-13T19:11:49.837Z,101537.00
2023-05-13T19:14:16.301Z,101535.97
2023-05-13T19:16:42.586Z,101535.97
2023-05-13T19:19:08.868Z,101536.22
2023-05-13T19:21:35.136Z,101534.91
2023-05-13T19:24:01.371Z,101539.25
2023-05-13T19:26:27.813Z,101539.59
2023-05-13T19:28:54.665Z,101542.06
2023-05-13T19:31:21.074Z,101543.75
2023-05-13T19:33:47.433Z,101539.97
2023-05-13T19:36:13.669Z,101532.44
2023-05-13T19:38:42.430Z,101538.44
2023-05-13T19:41:09.654Z,101531.13
2023-05-13T19:43:35.942Z,101531.97
2023-05-13T19:46:02.248Z,101534.22
2023-05-13T19:48:29.887Z,101535.84
2023-05-13T19:50:56.355Z,101539.97
2023-05-13T19:53:26.047Z,101538.09
2023-05-13T19:55:52.310Z,101544.91
2023-05-13T19:58:18.571Z,101543.03
2023-05-13T20:00:45.029Z,101544.44
2023-05-13T20:03:14.544Z,101544.44
2023-05-13T20:05:41.170Z,101546.09
2023-05-13T20:08:09.242Z,101542.91
2023-05-13T20:10:37.817Z,101541.84
2023-05-13T20:13:04.136Z,101542.44
2023-05-13T20:15:32.710Z,101545.97
2023-05-13T20:17:59.106Z,101542.19
2023-05-13T20:20:26.550Z,101546.53
2023-05-13T20:22:52.985Z,101543.59
2023-05-13T20:25:19.230Z,101547.72
2023-05-13T20:27:45.462Z,101544.78
2023-05-13T20:30:11.715Z,101542.06
2023-05-13T20:32:37.972Z,101546.41
2023-05-13T20:35:04.279Z,101539.47
2023-05-13T20:37:32.715Z,101536.19
2023-05-13T20:39:58.957Z,101534.88
2023-05-13T20:42:25.322Z,101531.69
2023-05-13T20:44:53.259Z,101523.69
2023-05-13T20:47:19.557Z,101532.06
2023-05-13T20:49:45.966Z,101528.75
2023-05-13T20:52:12.300Z,101529.81
2023-05-13T20:54:38.561Z,101530.66
2023-05-13T20:57:04.887Z,101523.56
2023-05-13T20:59:33.218Z,101529.81
2023-05-13T21:01:59.601Z,101520.84
2023-05-13T21:04:27.251Z,101525.69
2023-05-13T21:06:54.038Z,101515.72
2023-05-13T21:09:21.560Z,101523.00
2023-05-13T21:11:48.912Z,101520.28
2023-05-13T21:14:15.171Z,101518.41
2023-05-13T21:16:41.867Z,101517.00
2023-05-13T21:19:10.081Z,101519.72
2023-05-13T21:21:39.535Z,101518.03
2023-05-13T21:24:05.757Z,101518.88
2023-05-13T21:26:32.060Z,101513.47
2023-05-13T21:28:58.341Z,101509.13
2023-05-13T21:31:25.712Z,101517.00
2023-05-13T21:33:52.053Z,101516.16
2023-05-13T21:36:18.373Z,101515.34
2023-05-13T21:38:44.606Z,101524.28
2023-05-13T21:41:10.969Z,101513.69
2023-05-13T21:43:38.305Z,101509.13
2023-05-13T21:46:04.617Z,101512.88
2023-05-13T21:48:30.936Z,101509.34
2023-05-13T21:50:57.861Z,101513.94
2023-05-13T21:53:24.207Z,101513.13
2023-05-13T21:55:52.077Z,101511.47
2023-05-13T21:58:19.775Z,101516.88
2023-05-13T22:00:47.463Z,101511.69
2023-05-13T22:03:13.833Z,101514.41
2023-05-13T22:05:40.094Z,101515.22
2023-05-13T22:08:06.413Z,101524.44
2023-05-13T22:10:32.747Z,101516.31
2023-05-13T22:13:00.033Z,101513.59
2023-05-13T22:15:26.307Z,101511.97
2023-05-13T22:17:52.600Z,101513.81
2023-05-13T22:20:19.951Z,101505.72
2023-05-13T22:22:47.072Z,101518.41
2023-05-13T22:25:13.301Z,101515.69
2023-05-13T22:27:39.551Z,101514.06
2023-05-13T22:30:05.858Z,101515.97
2023-05-13T22:32:35.164Z,101511.59
2023-05-13T22:35:01.481Z,101505.38
2023-05-13T22:37:28.601Z,101513.50
2023-05-13T22:39:56.540Z,101509.94
2023-05-13T22:42:22.808Z,101509.13
2023-05-13T22:44:49.089Z,101506.66
2023-05-13T22:47:15.334Z,101507.47
2023-05-13T22:49:43.542Z,101508.53
2023-05-13T22:52:10.525Z,101509.59
2023-05-13T22:54:36.899Z,101509.59
2023-05-13T22:57:04.117Z,101506.06
2023-05-13T22:59:30.339Z,101503.59
2023-05-13T23:01:57.117Z,101500.09
2023-05-13T23:04:30.572Z,101504.66
2023-05-13T23:06:57.003Z,101501.38
2023-05-13T23:09:23.356Z,101500.31
2023-05-13T23:11:50.560Z,101497.84
2023-05-13T23:14:18.457Z,101493.50
2023-05-13T23:16:44.816Z,101491.03
2023-05-13T23:19:11.092Z,101489.97
2023-05-13T23:21:39.720Z,101492.09
2023-05-13T23:24:10.268Z,101494.78
2023-05-13T23:26:36.502Z,101486.06
2023-05-13T23:29:07.082Z,101488.56
2023-05-13T23:31:35.907Z,101486.91
2023-05-13T23:34:02.157Z,101481.72
2023-05-13T23:36:30.551Z,101474.44
2023-05-13T23:38:56.778Z,101477.38
2023-05-13T23:41:23.085Z,101475.72
2023-05-13T23:43:50.786Z,101467.03
2023-05-13T23:46:17.654Z,101471.38
2023-05-13T23:48:43.990Z,101475.16
2023-05-13T23:51:10.262Z,101470.56
2023-05-13T23:53:36.481Z,101473.50
2023-05-13T23:56:02.935Z,101463.72
2023-05-13T23:58:29.152Z,101467.25
